sensor_id;sensor_type;location;lat;lon;timestamp;temperature;humidity
3778;DHT22;1904;50.076;8.660;2024-01-11T00:00:15;-4.60;1.00
3778;DHT22;1904;50.076;8.660;2024-01-11T00:02:41;-4.50;1.00
3778;DHT22;1904;50.076;8.660;2024-01-11T00:05:14;-4.50;1.00
3778;DHT22;1904;50.076;8.660;2024-01-11T00:07:50;-4.50;1.00
3778;DHT22;1904;50.076;8.660;2024-01-11T00:10:15;-4.50;1.00
3778;DHT22;1904;50.076;8.660;2024-01-11T00:12:44;-4.50;1.00
3778;DHT22;1904;50.076;8.660;2024-01-11T00:15:20;-4.50;1.00
3778;DHT22;1904;50.076;8.660;2024-01-11T00:17:45;-4.50;1.00
3778;DHT22;1904;50.076;8.660;2024-01-11T00:20:11;-4.50;1.00
3778;DHT22;1904;50.076;8.660;2024-01-11T00:22:37;-4.50;1.00
3778;DHT22;1904;50.076;8.660;2024-01-11T00:25:02;-4.50;1.00
3778;DHT22;1904;50.076;8.660;2024-01-11T00:27:29;-4.50;1.00
3778;DHT22;1904;50.076;8.660;2024-01-11T00:29:54;-4.50;1.00
3778;DHT22;1904;50.076;8.660;2024-01-11T00:38:08;-4.40;1.00
3778;DHT22;1904;50.076;8.660;2024-01-11T00:40:33;-4.40;1.00
3778;DHT22;1904;50.076;8.660;2024-01-11T00:42:59;-4.30;1.00
3778;DHT22;1904;50.076;8.660;2024-01-11T00:45:26;-4.30;1.00
3778;DHT22;1904;50.076;8.660;2024-01-11T00:47:51;-4.30;1.00
3778;DHT22;1904;50.076;8.660;2024-01-11T00:50:20;-4.20;1.00
3778;DHT22;1904;50.076;8.660;2024-01-11T00:53:02;-4.20;1.00
3778;DHT22;1904;50.076;8.660;2024-01-11T00:55:28;-4.20;1.00
3778;DHT22;1904;50.076;8.660;2024-01-11T01:00:56;-4.20;1.00
3778;DHT22;1904;50.076;8.660;2024-01-11T01:03:22;-4.10;1.00
3778;DHT22;1904;50.076;8.660;2024-01-11T01:05:56;-4.10;1.00
3778;DHT22;1904;50.076;8.660;2024-01-11T01:08:26;-4.10;1.00
3778;DHT22;1904;50.076;8.660;2024-01-11T01:10:51;-4.10;1.00
3778;DHT22;1904;50.076;8.660;2024-01-11T01:13:26;-4.00;1.00
3778;DHT22;1904;50.076;8.660;2024-01-11T01:16:02;-4.00;1.00
3778;DHT22;1904;50.076;8.660;2024-01-11T01:18:27;-4.00;1.00
3778;DHT22;1904;50.076;8.660;2024-01-11T01:20:53;-3.90;1.00
3778;DHT22;1904;50.076;8.660;2024-01-11T01:23:20;-3.90;1.00
3778;DHT22;1904;50.076;8.660;2024-01-11T01:25:46;-3.90;1.00
3778;DHT22;1904;50.076;8.660;2024-01-11T01:28:14;-3.90;1.00
3778;DHT22;1904;50.076;8.660;2024-01-11T01:30:39;-3.90;1.00
3778;DHT22;1904;50.076;8.660;2024-01-11T01:33:08;-3.80;1.00
3778;DHT22;1904;50.076;8.660;2024-01-11T01:35:44;-3.90;1.00
3778;DHT22;1904;50.076;8.660;2024-01-11T01:38:09;-3.90;1.00
3778;DHT22;1904;50.076;8.660;2024-01-11T01:40:38;-3.90;1.00
3778;DHT22;1904;50.076;8.660;2024-01-11T01:43:06;-3.90;1.00
3778;DHT22;1904;50.076;8.660;2024-01-11T01:45:32;-3.80;1.00
3778;DHT22;1904;50.076;8.660;2024-01-11T01:48:14;-3.90;1.00
3778;DHT22;1904;50.076;8.660;2024-01-11T01:50:44;-3.90;1.00
3778;DHT22;1904;50.076;8.660;2024-01-11T01:56:14;-4.00;1.00
3778;DHT22;1904;50.076;8.660;2024-01-11T01:58:40;-4.00;1.00
3778;DHT22;1904;50.076;8.660;2024-01-11T02:01:26;-4.10;1.00
3778;DHT22;1904;50.076;8.660;2024-01-11T02:04:02;-4.10;1.00
3778;DHT22;1904;50.076;8.660;2024-01-11T02:06:38;-4.20;1.00
3778;DHT22;1904;50.076;8.660;2024-01-11T02:09:08;-4.20;1.00
3778;DHT22;1904;50.076;8.660;2024-01-11T02:11:38;-4.20;1.00
3778;DHT22;1904;50.076;8.660;2024-01-11T02:14:14;-4.30;1.00
3778;DHT22;1904;50.076;8.660;2024-01-11T02:16:39;-4.30;1.00
3778;DHT22;1904;50.076;8.660;2024-01-11T02:19:05;-4.30;1.00
3778;DHT22;1904;50.076;8.660;2024-01-11T02:21:44;-4.30;1.00
3778;DHT22;1904;50.076;8.660;2024-01-11T02:24:20;-4.30;1.00
3778;DHT22;1904;50.076;8.660;2024-01-11T02:29:50;-4.30;1.00
3778;DHT22;1904;50.076;8.660;2024-01-11T02:32:20;-4.30;1.00
3778;DHT22;1904;50.076;8.660;2024-01-11T02:34:45;-4.30;1.00
3778;DHT22;1904;50.076;8.660;2024-01-11T02:37:14;-4.30;1.00
3778;DHT22;1904;50.076;8.660;2024-01-11T02:39:56;-4.30;1.00
3778;DHT22;1904;50.076;8.660;2024-01-11T02:42:26;-4.40;1.00
3778;DHT22;1904;50.076;8.660;2024-01-11T02:44:52;-4.40;1.00
3778;DHT22;1904;50.076;8.660;2024-01-11T02:47:18;-4.50;1.00
3778;DHT22;1904;50.076;8.660;2024-01-11T02:49:44;-4.50;1.00
3778;DHT22;1904;50.076;8.660;2024-01-11T02:52:14;-4.50;1.00
3778;DHT22;1904;50.076;8.660;2024-01-11T02:54:56;-4.50;1.00
3778;DHT22;1904;50.076;8.660;2024-01-11T02:57:32;-4.60;1.00
3778;DHT22;1904;50.076;8.660;2024-01-11T03:00:14;-4.60;1.00
3778;DHT22;1904;50.076;8.660;2024-01-11T03:02:39;-4.60;1.00
3778;DHT22;1904;50.076;8.660;2024-01-11T03:05:20;-4.70;1.00
3778;DHT22;1904;50.076;8.660;2024-01-11T03:07:50;-4.70;1.00
3778;DHT22;1904;50.076;8.660;2024-01-11T03:10:26;-4.80;1.00
3778;DHT22;1904;50.076;8.660;2024-01-11T03:13:02;-4.80;1.00
3778;DHT22;1904;50.076;8.660;2024-01-11T03:15:27;-4.80;1.00
3778;DHT22;1904;50.076;8.660;2024-01-11T03:17:56;-4.80;1.00
3778;DHT22;1904;50.076;8.660;2024-01-11T03:20:26;-4.80;1.00
3778;DHT22;1904;50.076;8.660;2024-01-11T03:22:56;-4.80;1.00
3778;DHT22;1904;50.076;8.660;2024-01-11T03:25:38;-4.90;1.00
3778;DHT22;1904;50.076;8.660;2024-01-11T03:28:14;-4.90;1.00
3778;DHT22;1904;50.076;8.660;2024-01-11T03:30:50;-5.00;1.00
3778;DHT22;1904;50.076;8.660;2024-01-11T03:33:15;-5.00;1.00
3778;DHT22;1904;50.076;8.660;2024-01-11T03:35:41;-5.00;1.00
3778;DHT22;1904;50.076;8.660;2024-01-11T03:38:09;-5.00;1.00
3778;DHT22;1904;50.076;8.660;2024-01-11T03:40:44;-5.10;1.00
3778;DHT22;1904;50.076;8.660;2024-01-11T03:43:20;-5.10;1.00
3778;DHT22;1904;50.076;8.660;2024-01-11T03:45:56;-5.10;1.00
3778;DHT22;1904;50.076;8.660;2024-01-11T03:48:32;-5.20;1.00
3778;DHT22;1904;50.076;8.660;2024-01-11T03:51:02;-5.20;1.00
3778;DHT22;1904;50.076;8.660;2024-01-11T03:56:26;-5.20;1.00
3778;DHT22;1904;50.076;8.660;2024-01-11T03:58:56;-5.30;1.00
3778;DHT22;1904;50.076;8.660;2024-01-11T04:01:26;-5.30;1.00
3778;DHT22;1904;50.076;8.660;2024-01-11T04:03:56;-5.40;1.00
3778;DHT22;1904;50.076;8.660;2024-01-11T04:06:26;-5.40;1.00
3778;DHT22;1904;50.076;8.660;2024-01-11T04:08:56;-5.40;1.00
3778;DHT22;1904;50.076;8.660;2024-01-11T04:11:22;-5.40;1.00
3778;DHT22;1904;50.076;8.660;2024-01-11T04:14:02;-5.40;1.00
3778;DHT22;1904;50.076;8.660;2024-01-11T04:16:27;-5.30;1.00
3778;DHT22;1904;50.076;8.660;2024-01-11T04:18:53;-5.30;1.00
3778;DHT22;1904;50.076;8.660;2024-01-11T04:23:47;-5.20;1.00
3778;DHT22;1904;50.076;8.660;2024-01-11T04:26:13;-5.20;1.00
3778;DHT22;1904;50.076;8.660;2024-01-11T04:28:39;-5.20;1.00
3778;DHT22;1904;50.076;8.660;2024-01-11T04:31:08;-5.10;1.00
3778;DHT22;1904;50.076;8.660;2024-01-11T04:33:33;-5.10;1.00
3778;DHT22;1904;50.076;8.660;2024-01-11T04:35:59;-5.10;1.00
3778;DHT22;1904;50.076;8.660;2024-01-11T04:38:25;-5.00;1.00
3778;DHT22;1904;50.076;8.660;2024-01-11T04:40:50;-5.00;1.00
3778;DHT22;1904;50.076;8.660;2024-01-11T04:43:20;-5.00;1.00
3778;DHT22;1904;50.076;8.660;2024-01-11T04:45:56;-5.00;1.00
3778;DHT22;1904;50.076;8.660;2024-01-11T04:48:26;-5.00;1.00
3778;DHT22;1904;50.076;8.660;2024-01-11T04:51:02;-4.90;1.00
3778;DHT22;1904;50.076;8.660;2024-01-11T04:53:27;-4.90;1.00
3778;DHT22;1904;50.076;8.660;2024-01-11T04:58:44;-4.90;1.00
3778;DHT22;1904;50.076;8.660;2024-01-11T05:01:13;-4.90;1.00
3778;DHT22;1904;50.076;8.660;2024-01-11T05:03:44;-4.80;1.00
3778;DHT22;1904;50.076;8.660;2024-01-11T05:06:17;-4.80;1.00
3778;DHT22;1904;50.076;8.660;2024-01-11T05:08:46;-4.80;1.00
3778;DHT22;1904;50.076;8.660;2024-01-11T05:14:08;-4.70;1.00
3778;DHT22;1904;50.076;8.660;2024-01-11T05:16:33;-4.60;1.00
3778;DHT22;1904;50.076;8.660;2024-01-11T05:19:00;-4.60;1.00
3778;DHT22;1904;50.076;8.660;2024-01-11T05:21:38;-4.60;1.00
3778;DHT22;1904;50.076;8.660;2024-01-11T05:29:50;-4.50;1.00
3778;DHT22;1904;50.076;8.660;2024-01-11T05:32:26;-4.50;1.00
3778;DHT22;1904;50.076;8.660;2024-01-11T05:34:51;-4.50;1.00
3778;DHT22;1904;50.076;8.660;2024-01-11T05:37:20;-4.50;1.00
3778;DHT22;1904;50.076;8.660;2024-01-11T05:40:02;-4.40;1.00
3778;DHT22;1904;50.076;8.660;2024-01-11T05:42:32;-4.40;1.00
3778;DHT22;1904;50.076;8.660;2024-01-11T05:45:02;-4.30;1.00
3778;DHT22;1904;50.076;8.660;2024-01-11T05:47:27;-4.30;1.00
3778;DHT22;1904;50.076;8.660;2024-01-11T05:49:53;-4.20;1.00
3778;DHT22;1904;50.076;8.660;2024-01-11T05:55:32;-4.20;1.00
3778;DHT22;1904;50.076;8.660;2024-01-11T05:57:57;-4.30;1.00
3778;DHT22;1904;50.076;8.660;2024-01-11T06:00:32;-4.20;1.00
3778;DHT22;1904;50.076;8.660;2024-01-11T06:02:58;-4.30;1.00
3778;DHT22;1904;50.076;8.660;2024-01-11T06:05:23;-4.20;1.00
3778;DHT22;1904;50.076;8.660;2024-01-11T06:08:08;-4.20;1.00
3778;DHT22;1904;50.076;8.660;2024-01-11T06:10:33;-4.20;1.00
3778;DHT22;1904;50.076;8.660;2024-01-11T06:15:50;-4.30;1.00
3778;DHT22;1904;50.076;8.660;2024-01-11T06:21:20;-4.30;1.00
3778;DHT22;1904;50.076;8.660;2024-01-11T06:24:02;-4.20;1.00
3778;DHT22;1904;50.076;8.660;2024-01-11T06:26:32;-4.30;1.00
3778;DHT22;1904;50.076;8.660;2024-01-11T06:34:38;-4.20;1.00
3778;DHT22;1904;50.076;8.660;2024-01-11T06:37:08;-4.30;1.00
3778;DHT22;1904;50.076;8.660;2024-01-11T06:39:33;-4.20;1.00
3778;DHT22;1904;50.076;8.660;2024-01-11T06:42:08;-4.20;1.00
3778;DHT22;1904;50.076;8.660;2024-01-11T06:44:50;-4.20;1.00
3778;DHT22;1904;50.076;8.660;2024-01-11T06:47:26;-4.20;1.00
3778;DHT22;1904;50.076;8.660;2024-01-11T06:50:02;-4.20;1.00
3778;DHT22;1904;50.076;8.660;2024-01-11T06:52:28;-4.20;1.00
3778;DHT22;1904;50.076;8.660;2024-01-11T06:55:02;-4.20;1.00
3778;DHT22;1904;50.076;8.660;2024-01-11T06:57:38;-4.20;1.00
3778;DHT22;1904;50.076;8.660;2024-01-11T07:00:20;-4.20;1.00
3778;DHT22;1904;50.076;8.660;2024-01-11T07:02:56;-4.30;1.00
3778;DHT22;1904;50.076;8.660;2024-01-11T07:08:15;-4.30;1.00
3778;DHT22;1904;50.076;8.660;2024-01-11T07:10:41;-4.30;1.00
3778;DHT22;1904;50.076;8.660;2024-01-11T07:13:07;-4.40;1.00
3778;DHT22;1904;50.076;8.660;2024-01-11T07:15:35;-4.40;1.00
3778;DHT22;1904;50.076;8.660;2024-01-11T07:18:01;-4.40;1.00
3778;DHT22;1904;50.076;8.660;2024-01-11T07:20:38;-4.40;1.00
3778;DHT22;1904;50.076;8.660;2024-01-11T07:23:03;-4.40;1.00
3778;DHT22;1904;50.076;8.660;2024-01-11T07:25:29;-4.40;1.00
3778;DHT22;1904;50.076;8.660;2024-01-11T07:27:55;-4.40;1.00
3778;DHT22;1904;50.076;8.660;2024-01-11T07:30:26;-4.40;1.00
3778;DHT22;1904;50.076;8.660;2024-01-11T07:33:02;-4.40;1.00
3778;DHT22;1904;50.076;8.660;2024-01-11T07:35:38;-4.40;1.00
3778;DHT22;1904;50.076;8.660;2024-01-11T07:38:03;-4.40;1.00
3778;DHT22;1904;50.076;8.660;2024-01-11T07:40:29;-4.40;1.00
3778;DHT22;1904;50.076;8.660;2024-01-11T07:42:55;-4.40;1.00
3778;DHT22;1904;50.076;8.660;2024-01-11T07:45:20;-4.40;1.00
3778;DHT22;1904;50.076;8.660;2024-01-11T07:47:46;-4.40;1.00
3778;DHT22;1904;50.076;8.660;2024-01-11T07:50:12;-4.40;1.00
3778;DHT22;1904;50.076;8.660;2024-01-11T07:52:38;-4.30;1.00
3778;DHT22;1904;50.076;8.660;2024-01-11T07:55:04;-4.30;1.00
3778;DHT22;1904;50.076;8.660;2024-01-11T07:57:50;-4.20;1.00
3778;DHT22;1904;50.076;8.660;2024-01-11T08:03:08;-4.20;1.00
3778;DHT22;1904;50.076;8.660;2024-01-11T08:05:38;-4.20;1.00
3778;DHT22;1904;50.076;8.660;2024-01-11T08:08:08;-4.20;1.00
3778;DHT22;1904;50.076;8.660;2024-01-11T08:10:38;-4.10;1.00
3778;DHT22;1904;50.076;8.660;2024-01-11T08:15:32;-4.10;1.00
3778;DHT22;1904;50.076;8.660;2024-01-11T08:20:33;-4.00;1.00
3778;DHT22;1904;50.076;8.660;2024-01-11T08:25:44;-3.90;1.00
3778;DHT22;1904;50.076;8.660;2024-01-11T08:36:38;-3.80;1.00
3778;DHT22;1904;50.076;8.660;2024-01-11T08:39:08;-3.80;1.00
3778;DHT22;1904;50.076;8.660;2024-01-11T08:41:34;-3.70;1.00
3778;DHT22;1904;50.076;8.660;2024-01-11T08:47:08;-3.60;1.00
3778;DHT22;1904;50.076;8.660;2024-01-11T08:52:38;-3.40;1.00
3778;DHT22;1904;50.076;8.660;2024-01-11T08:55:14;-3.30;1.00
3778;DHT22;1904;50.076;8.660;2024-01-11T08:57:44;-3.30;1.00
3778;DHT22;1904;50.076;8.660;2024-01-11T09:00:14;-3.10;1.00
3778;DHT22;1904;50.076;8.660;2024-01-11T09:02:43;-3.10;1.00
3778;DHT22;1904;50.076;8.660;2024-01-11T09:08:20;-3.00;1.00
3778;DHT22;1904;50.076;8.660;2024-01-11T09:10:56;-2.90;1.00
3778;DHT22;1904;50.076;8.660;2024-01-11T09:13:27;-2.70;1.00
3778;DHT22;1904;50.076;8.660;2024-01-11T09:18:38;-2.50;1.00
3778;DHT22;1904;50.076;8.660;2024-01-11T09:21:14;-2.50;1.00
3778;DHT22;1904;50.076;8.660;2024-01-11T09:23:56;-2.40;1.00
3778;DHT22;1904;50.076;8.660;2024-01-11T09:26:26;-2.30;1.00
3778;DHT22;1904;50.076;8.660;2024-01-11T09:28:52;-2.30;1.00
3778;DHT22;1904;50.076;8.660;2024-01-11T09:31:20;-2.20;1.00
3778;DHT22;1904;50.076;8.660;2024-01-11T09:33:56;-2.10;1.00
3778;DHT22;1904;50.076;8.660;2024-01-11T09:36:32;-2.00;1.00
3778;DHT22;1904;50.076;8.660;2024-01-11T09:39:14;-1.90;1.00
3778;DHT22;1904;50.076;8.660;2024-01-11T09:41:41;-1.80;1.00
3778;DHT22;1904;50.076;8.660;2024-01-11T09:47:02;-1.70;1.00
3778;DHT22;1904;50.076;8.660;2024-01-11T09:49:29;-1.60;1.00
3778;DHT22;1904;50.076;8.660;2024-01-11T09:52:02;-1.60;1.00
3778;DHT22;1904;50.076;8.660;2024-01-11T09:54:32;-1.50;1.00
3778;DHT22;1904;50.076;8.660;2024-01-11T09:56:58;-1.40;1.00
3778;DHT22;1904;50.076;8.660;2024-01-11T10:02:32;-1.30;1.00
3778;DHT22;1904;50.076;8.660;2024-01-11T10:05:08;-1.20;1.00
3778;DHT22;1904;50.076;8.660;2024-01-11T10:07:34;-1.10;1.00
3778;DHT22;1904;50.076;8.660;2024-01-11T10:10:08;-1.10;1.00
3778;DHT22;1904;50.076;8.660;2024-01-11T10:12:38;-1.00;1.00
3778;DHT22;1904;50.076;8.660;2024-01-11T10:15:21;-0.90;1.00
3778;DHT22;1904;50.076;8.660;2024-01-11T10:17:49;-0.90;1.00
3778;DHT22;1904;50.076;8.660;2024-01-11T10:20:26;-0.90;1.00
3778;DHT22;1904;50.076;8.660;2024-01-11T10:28:39;-0.70;1.00
3778;DHT22;1904;50.076;8.660;2024-01-11T10:37:11;-0.60;1.00
3778;DHT22;1904;50.076;8.660;2024-01-11T10:39:44;-0.50;1.00
3778;DHT22;1904;50.076;8.660;2024-01-11T10:42:10;-0.40;1.00
3778;DHT22;1904;50.076;8.660;2024-01-11T10:44:44;-0.30;1.00
3778;DHT22;1904;50.076;8.660;2024-01-11T10:47:14;-0.20;1.00
3778;DHT22;1904;50.076;8.660;2024-01-11T10:49:50;-0.10;1.00
3778;DHT22;1904;50.076;8.660;2024-01-11T10:52:17;-0.10;1.00
3778;DHT22;1904;50.076;8.660;2024-01-11T10:57:51;0.10;1.00
3778;DHT22;1904;50.076;8.660;2024-01-11T11:00:16;0.10;1.00
3778;DHT22;1904;50.076;8.660;2024-01-11T11:02:44;0.20;1.00
3778;DHT22;1904;50.076;8.660;2024-01-11T11:05:14;0.30;1.00
3778;DHT22;1904;50.076;8.660;2024-01-11T11:07:41;0.30;1.00
3778;DHT22;1904;50.076;8.660;2024-01-11T11:13:14;0.30;1.00
3778;DHT22;1904;50.076;8.660;2024-01-11T11:15:47;0.40;1.00
3778;DHT22;1904;50.076;8.660;2024-01-11T11:18:26;0.50;1.00
3778;DHT22;1904;50.076;8.660;2024-01-11T11:24:02;0.70;1.00
3778;DHT22;1904;50.076;8.660;2024-01-11T11:26:32;0.80;1.00
3778;DHT22;1904;50.076;8.660;2024-01-11T11:29:17;0.90;1.00
3778;DHT22;1904;50.076;8.660;2024-01-11T11:31:44;0.90;1.00
3778;DHT22;1904;50.076;8.660;2024-01-11T11:34:14;0.90;1.00
3778;DHT22;1904;50.076;8.660;2024-01-11T11:36:40;1.10;1.00
3778;DHT22;1904;50.076;8.660;2024-01-11T11:39:09;1.00;1.00
3778;DHT22;1904;50.076;8.660;2024-01-11T11:41:38;1.10;1.00
3778;DHT22;1904;50.076;8.660;2024-01-11T11:44:08;1.20;1.00
3778;DHT22;1904;50.076;8.660;2024-01-11T11:46:38;1.30;1.00
3778;DHT22;1904;50.076;8.660;2024-01-11T11:49:04;1.30;1.00
3778;DHT22;1904;50.076;8.660;2024-01-11T11:51:29;1.40;1.00
3778;DHT22;1904;50.076;8.660;2024-01-11T11:53:56;1.50;1.00
3778;DHT22;1904;50.076;8.660;2024-01-11T11:56:26;1.50;1.00
3778;DHT22;1904;50.076;8.660;2024-01-11T12:01:44;1.50;1.00
3778;DHT22;1904;50.076;8.660;2024-01-11T12:04:20;1.60;1.00
3778;DHT22;1904;50.076;8.660;2024-01-11T12:06:56;1.60;1.00
3778;DHT22;1904;50.076;8.660;2024-01-11T12:12:34;1.90;1.00
3778;DHT22;1904;50.076;8.660;2024-01-11T12:15:00;1.90;1.00
3778;DHT22;1904;50.076;8.660;2024-01-11T12:17:26;1.90;1.00
3778;DHT22;1904;50.076;8.660;2024-01-11T12:19:52;1.90;1.00
3778;DHT22;1904;50.076;8.660;2024-01-11T12:22:32;2.00;1.00
3778;DHT22;1904;50.076;8.660;2024-01-11T12:25:02;2.00;1.00
3778;DHT22;1904;50.076;8.660;2024-01-11T12:27:28;2.00;1.00
3778;DHT22;1904;50.076;8.660;2024-01-11T12:29:56;2.00;1.00
3778;DHT22;1904;50.076;8.660;2024-01-11T12:32:26;2.10;1.00
3778;DHT22;1904;50.076;8.660;2024-01-11T12:34:52;2.20;1.00
3778;DHT22;1904;50.076;8.660;2024-01-11T12:40:08;2.30;1.00
3778;DHT22;1904;50.076;8.660;2024-01-11T12:42:37;2.20;1.00
3778;DHT22;1904;50.076;8.660;2024-01-11T12:45:20;2.30;1.00
3778;DHT22;1904;50.076;8.660;2024-01-11T12:47:50;2.30;1.00
3778;DHT22;1904;50.076;8.660;2024-01-11T12:50:16;2.30;1.00
3778;DHT22;1904;50.076;8.660;2024-01-11T12:52:41;2.40;1.00
3778;DHT22;1904;50.076;8.660;2024-01-11T12:55:13;2.40;1.00
3778;DHT22;1904;50.076;8.660;2024-01-11T12:57:43;2.50;1.00
3778;DHT22;1904;50.076;8.660;2024-01-11T13:00:14;2.50;1.00
3778;DHT22;1904;50.076;8.660;2024-01-11T13:02:41;2.60;1.00
3778;DHT22;1904;50.076;8.660;2024-01-11T13:05:20;2.60;1.00
3778;DHT22;1904;50.076;8.660;2024-01-11T13:07:50;2.60;1.00
3778;DHT22;1904;50.076;8.660;2024-01-11T13:10:26;2.60;1.00
3778;DHT22;1904;50.076;8.660;2024-01-11T13:15:26;2.70;1.00
3778;DHT22;1904;50.076;8.660;2024-01-11T13:18:02;2.70;1.00
3778;DHT22;1904;50.076;8.660;2024-01-11T13:20:32;2.80;1.00
3778;DHT22;1904;50.076;8.660;2024-01-11T13:23:14;2.90;1.00
3778;DHT22;1904;50.076;8.660;2024-01-11T13:25:43;2.90;1.00
3778;DHT22;1904;50.076;8.660;2024-01-11T13:28:14;2.90;1.00
3778;DHT22;1904;50.076;8.660;2024-01-11T13:30:44;3.00;1.00
3778;DHT22;1904;50.076;8.660;2024-01-11T13:33:11;3.00;1.00
3778;DHT22;1904;50.076;8.660;2024-01-11T13:35:50;3.00;1.00
3778;DHT22;1904;50.076;8.660;2024-01-11T13:38:16;3.10;1.00
3778;DHT22;1904;50.076;8.660;2024-01-11T13:40:42;3.10;1.00
3778;DHT22;1904;50.076;8.660;2024-01-11T13:43:14;3.20;1.00
3778;DHT22;1904;50.076;8.660;2024-01-11T13:45:40;3.20;1.00
3778;DHT22;1904;50.076;8.660;2024-01-11T13:48:08;3.20;1.00
3778;DHT22;1904;50.076;8.660;2024-01-11T13:50:44;3.20;1.00
3778;DHT22;1904;50.076;8.660;2024-01-11T13:53:10;3.20;1.00
3778;DHT22;1904;50.076;8.660;2024-01-11T13:55:50;3.20;1.00
3778;DHT22;1904;50.076;8.660;2024-01-11T13:58:26;3.20;1.00
3778;DHT22;1904;50.076;8.660;2024-01-11T14:00:52;3.10;1.00
3778;DHT22;1904;50.076;8.660;2024-01-11T14:06:14;3.10;1.00
3778;DHT22;1904;50.076;8.660;2024-01-11T14:08:44;3.10;1.00
3778;DHT22;1904;50.076;8.660;2024-01-11T14:11:10;3.10;1.00
3778;DHT22;1904;50.076;8.660;2024-01-11T14:13:38;3.10;1.00
3778;DHT22;1904;50.076;8.660;2024-01-11T14:16:04;3.10;1.00
3778;DHT22;1904;50.076;8.660;2024-01-11T14:18:44;3.10;1.00
3778;DHT22;1904;50.076;8.660;2024-01-11T14:21:14;3.10;1.00
3778;DHT22;1904;50.076;8.660;2024-01-11T14:23:50;3.10;1.00
3778;DHT22;1904;50.076;8.660;2024-01-11T14:29:19;3.10;1.00
3778;DHT22;1904;50.076;8.660;2024-01-11T14:31:45;3.10;1.00
3778;DHT22;1904;50.076;8.660;2024-01-11T14:40:08;3.00;1.00
3778;DHT22;1904;50.076;8.660;2024-01-11T14:42:37;3.00;1.00
3778;DHT22;1904;50.076;8.660;2024-01-11T14:45:08;3.00;1.00
3778;DHT22;1904;50.076;8.660;2024-01-11T14:47:38;3.00;1.00
3778;DHT22;1904;50.076;8.660;2024-01-11T14:50:04;2.90;1.00
3778;DHT22;1904;50.076;8.660;2024-01-11T14:52:44;2.80;1.00
3778;DHT22;1904;50.076;8.660;2024-01-11T15:00:56;2.60;1.00
3778;DHT22;1904;50.076;8.660;2024-01-11T15:06:24;2.30;1.00
3778;DHT22;1904;50.076;8.660;2024-01-11T15:09:08;2.30;1.00
3778;DHT22;1904;50.076;8.660;2024-01-11T15:11:44;2.20;1.00
3778;DHT22;1904;50.076;8.660;2024-01-11T15:14:14;2.10;1.00
3778;DHT22;1904;50.076;8.660;2024-01-11T15:16:56;2.00;1.00
3778;DHT22;1904;50.076;8.660;2024-01-11T15:19:22;1.80;1.00
3778;DHT22;1904;50.076;8.660;2024-01-11T15:22:02;1.80;1.00
3778;DHT22;1904;50.076;8.660;2024-01-11T15:27:21;1.50;1.00
3778;DHT22;1904;50.076;8.660;2024-01-11T15:30:02;1.30;1.00
3778;DHT22;1904;50.076;8.660;2024-01-11T15:32:32;1.10;1.00
3778;DHT22;1904;50.076;8.660;2024-01-11T15:35:02;1.00;1.00
3778;DHT22;1904;50.076;8.660;2024-01-11T15:40:20;0.70;1.00
3778;DHT22;1904;50.076;8.660;2024-01-11T15:42:50;0.70;1.00
3778;DHT22;1904;50.076;8.660;2024-01-11T15:45:20;0.60;1.00
3778;DHT22;1904;50.076;8.660;2024-01-11T15:47:46;0.50;1.00
3778;DHT22;1904;50.076;8.660;2024-01-11T15:53:14;0.20;1.00
3778;DHT22;1904;50.076;8.660;2024-01-11T15:55:40;0.10;1.00
3778;DHT22;1904;50.076;8.660;2024-01-11T15:58:06;-0.10;1.00
3778;DHT22;1904;50.076;8.660;2024-01-11T16:00:31;-0.10;1.00
3778;DHT22;1904;50.076;8.660;2024-01-11T16:03:02;-0.20;1.00
3778;DHT22;1904;50.076;8.660;2024-01-11T16:05:44;-0.30;1.00
3778;DHT22;1904;50.076;8.660;2024-01-11T16:08:10;-0.40;1.00
3778;DHT22;1904;50.076;8.660;2024-01-11T16:10:38;-0.50;1.00
3778;DHT22;1904;50.076;8.660;2024-01-11T16:13:04;-0.50;1.00
3778;DHT22;1904;50.076;8.660;2024-01-11T16:15:29;-0.60;1.00
3778;DHT22;1904;50.076;8.660;2024-01-11T16:17:55;-0.70;1.00
3778;DHT22;1904;50.076;8.660;2024-01-11T16:20:21;-0.80;1.00
3778;DHT22;1904;50.076;8.660;2024-01-11T16:22:47;-0.80;1.00
3778;DHT22;1904;50.076;8.660;2024-01-11T16:25:13;-0.90;1.00
3778;DHT22;1904;50.076;8.660;2024-01-11T16:27:50;-1.00;1.00
3778;DHT22;1904;50.076;8.660;2024-01-11T16:30:26;-1.10;1.00
3778;DHT22;1904;50.076;8.660;2024-01-11T16:32:56;-1.10;1.00
3778;DHT22;1904;50.076;8.660;2024-01-11T16:35:38;-1.20;1.00
3778;DHT22;1904;50.076;8.660;2024-01-11T16:38:04;-1.40;1.00
3778;DHT22;1904;50.076;8.660;2024-01-11T16:40:30;-1.40;1.00
3778;DHT22;1904;50.076;8.660;2024-01-11T16:42:56;-1.40;1.00
3778;DHT22;1904;50.076;8.660;2024-01-11T16:45:32;-1.50;1.00
3778;DHT22;1904;50.076;8.660;2024-01-11T16:48:02;-1.50;1.00
3778;DHT22;1904;50.076;8.660;2024-01-11T16:50:38;-1.50;1.00
3778;DHT22;1904;50.076;8.660;2024-01-11T16:53:04;-1.50;1.00
3778;DHT22;1904;50.076;8.660;2024-01-11T16:55:32;-1.70;1.00
3778;DHT22;1904;50.076;8.660;2024-01-11T16:58:14;-1.70;1.00
3778;DHT22;1904;50.076;8.660;2024-01-11T17:00:56;-1.70;1.00
3778;DHT22;1904;50.076;8.660;2024-01-11T17:03:32;-1.80;1.00
3778;DHT22;1904;50.076;8.660;2024-01-11T17:06:02;-1.90;1.00
3778;DHT22;1904;50.076;8.660;2024-01-11T17:08:32;-1.90;1.00
3778;DHT22;1904;50.076;8.660;2024-01-11T17:14:02;-1.90;1.00
3778;DHT22;1904;50.076;8.660;2024-01-11T17:19:31;-2.10;1.00
3778;DHT22;1904;50.076;8.660;2024-01-11T17:21:56;-2.10;1.00
3778;DHT22;1904;50.076;8.660;2024-01-11T17:24:32;-2.10;1.00
3778;DHT22;1904;50.076;8.660;2024-01-11T17:27:02;-2.20;1.00
3778;DHT22;1904;50.076;8.660;2024-01-11T17:29:38;-2.20;1.00
3778;DHT22;1904;50.076;8.660;2024-01-11T17:32:08;-2.20;1.00
3778;DHT22;1904;50.076;8.660;2024-01-11T17:34:50;-2.20;1.00
3778;DHT22;1904;50.076;8.660;2024-01-11T17:37:32;-2.20;1.00
3778;DHT22;1904;50.076;8.660;2024-01-11T17:42:58;-2.20;1.00
3778;DHT22;1904;50.076;8.660;2024-01-11T17:45:32;-2.20;1.00
3778;DHT22;1904;50.076;8.660;2024-01-11T17:48:00;-2.30;1.00
3778;DHT22;1904;50.076;8.660;2024-01-11T17:50:26;-2.40;1.00
3778;DHT22;1904;50.076;8.660;2024-01-11T17:52:52;-2.40;1.00
3778;DHT22;1904;50.076;8.660;2024-01-11T17:55:26;-2.40;1.00
3778;DHT22;1904;50.076;8.660;2024-01-11T17:58:08;-2.40;1.00
3778;DHT22;1904;50.076;8.660;2024-01-11T18:00:38;-2.50;1.00
3778;DHT22;1904;50.076;8.660;2024-01-11T18:03:08;-2.60;1.00
3778;DHT22;1904;50.076;8.660;2024-01-11T18:08:38;-2.60;1.00
3778;DHT22;1904;50.076;8.660;2024-01-11T18:17:00;-2.60;1.00
3778;DHT22;1904;50.076;8.660;2024-01-11T18:19:26;-2.60;1.00
3778;DHT22;1904;50.076;8.660;2024-01-11T18:21:51;-2.70;1.00
3778;DHT22;1904;50.076;8.660;2024-01-11T18:27:08;-2.60;1.00
3778;DHT22;1904;50.076;8.660;2024-01-11T18:29:44;-2.60;1.00
3778;DHT22;1904;50.076;8.660;2024-01-11T18:32:10;-2.70;1.00
3778;DHT22;1904;50.076;8.660;2024-01-11T18:34:35;-2.70;1.00
3778;DHT22;1904;50.076;8.660;2024-01-11T18:42:44;-2.70;1.00
3778;DHT22;1904;50.076;8.660;2024-01-11T18:45:10;-2.80;1.00
3778;DHT22;1904;50.076;8.660;2024-01-11T18:47:44;-2.80;1.00
3778;DHT22;1904;50.076;8.660;2024-01-11T18:50:10;-2.70;1.00
3778;DHT22;1904;50.076;8.660;2024-01-11T18:52:35;-2.70;1.00
3778;DHT22;1904;50.076;8.660;2024-01-11T18:55:08;-2.70;1.00
3778;DHT22;1904;50.076;8.660;2024-01-11T18:57:34;-2.60;1.00
3778;DHT22;1904;50.076;8.660;2024-01-11T19:00:02;-2.50;1.00
3778;DHT22;1904;50.076;8.660;2024-01-11T19:05:20;-2.30;1.00
3778;DHT22;1904;50.076;8.660;2024-01-11T19:07:47;-2.20;1.00
3778;DHT22;1904;50.076;8.660;2024-01-11T19:10:12;-2.10;1.00
3778;DHT22;1904;50.076;8.660;2024-01-11T19:12:38;-2.00;1.00
3778;DHT22;1904;50.076;8.660;2024-01-11T19:15:04;-1.80;1.00
3778;DHT22;1904;50.076;8.660;2024-01-11T19:17:30;-1.70;1.00
3778;DHT22;1904;50.076;8.660;2024-01-11T19:19:55;-1.60;1.00
3778;DHT22;1904;50.076;8.660;2024-01-11T19:22:26;-1.60;1.00
3778;DHT22;1904;50.076;8.660;2024-01-11T19:25:02;-1.40;1.00
3778;DHT22;1904;50.076;8.660;2024-01-11T19:27:44;-1.30;1.00
3778;DHT22;1904;50.076;8.660;2024-01-11T19:30:20;-1.20;1.00
3778;DHT22;1904;50.076;8.660;2024-01-11T19:32:46;-1.10;1.00
3778;DHT22;1904;50.076;8.660;2024-01-11T19:35:14;-1.00;1.00
3778;DHT22;1904;50.076;8.660;2024-01-11T19:37:44;-0.80;1.00